Terminal Aerodrome Forecast
Issued by NWS Tulsa, OK

Home | Current Version | Previous Version | Text Only | Print | Product List | Glossary On
Versions: 1 2 3 4 5 6 7 8 9 10 11 12
000
FTUS44 KTSA 302300
TAFTUL
TAF
KTUL 302320Z 3100/3124 VRB03KT P6SM BKN150
     FM310200 14005KT P6SM OVC100 PROB30 3110/3116 -RA OVC050
     FM311600 15010KT P6SM OVC050 PROB30 3116/3118 -RA
     FM311800 16010KT 5SM -RA BR OVC035=

USA.gov is the U.S. government's official web portal to all federal, state and local government web resources and services.